Time;durP1;ratioP1;P1;durP2;ratioP2;P2;SDS_P1;SDS_P2;PMS_P1;PMS_P2;Temp;Humidity;BMP_temperature;BMP_pressure;BME280_temperature;BME280_humidity;BME280_pressure;Samples;Min_cycle;Max_cycle;Signal;HPM_P1;HPM_P2
2022/01/21 00:00:12;;;;;;;;;;;2.20;84.10;;;;;;5012582;28;19936;-81
2022/01/21 00:02:38;;;;;;;;;;;2.20;84.30;;;;;;5012734;28;20289;-82
2022/01/21 00:05:04;;;;;;;;;;;2.10;83.90;;;;;;4995805;28;19928;-82
2022/01/21 00:07:30;;;;;;;;;;;2.10;84.00;;;;;;4997690;28;19917;-81
2022/01/21 00:09:55;;;;;;;;;;;2.20;84.20;;;;;;4994539;28;19941;-82
2022/01/21 00:12:22;;;;;;;;;;;2.30;83.90;;;;;;4996451;28;19999;-81
2022/01/21 00:14:47;;;;;;;;;;;2.30;84.00;;;;;;4994354;28;19913;-82
2022/01/21 00:17:13;;;;;;;;;;;2.30;84.10;;;;;;5013401;28;19936;-81
2022/01/21 00:19:41;;;;;;;;;;;2.40;83.90;;;;;;5012293;28;20023;-82
2022/01/21 00:30:24;;;;;;;;;;;2.50;83.50;;;;;;5012001;28;19932;-82
2022/01/21 00:32:49;;;;;;;;;;;2.50;83.70;;;;;;4992771;28;19921;-82
2022/01/21 00:35:18;;;;;;;;;;;2.50;83.90;;;;;;4997277;28;19913;-82
2022/01/21 00:37:45;;;;;;;;;;;2.40;84.00;;;;;;4993940;28;20039;-83
2022/01/21 00:40:13;;;;;;;;;;;2.30;84.10;;;;;;5002318;28;19923;-82
2022/01/21 00:45:07;;;;;;;;;;;2.40;83.90;;;;;;5031511;28;20721;-82
2022/01/21 00:47:32;;;;;;;;;;;2.50;83.70;;;;;;5025634;28;19940;-81
2022/01/21 00:49:58;;;;;;;;;;;2.50;83.80;;;;;;5017618;28;19913;-82
2022/01/21 00:52:24;;;;;;;;;;;2.60;83.90;;;;;;5016960;28;19913;-81
2022/01/21 00:54:49;;;;;;;;;;;2.60;83.60;;;;;;5008544;28;19921;-82
2022/01/21 00:57:14;;;;;;;;;;;2.60;83.90;;;;;;5026894;28;20301;-81
2022/01/21 00:59:40;;;;;;;;;;;2.60;83.60;;;;;;5004949;28;19913;-81
2022/01/21 01:02:06;;;;;;;;;;;2.60;83.30;;;;;;5027460;28;19921;-80
2022/01/21 01:04:31;;;;;;;;;;;2.60;83.60;;;;;;5009479;28;19929;-81
2022/01/21 01:06:57;;;;;;;;;;;2.50;83.80;;;;;;5026635;28;19932;-81
2022/01/21 01:09:23;;;;;;;;;;;2.40;83.80;;;;;;5009300;28;19945;-81
2022/01/21 01:20:00;;;;;;;;;;;2.30;84.60;;;;;;5029240;28;19959;-82
2022/01/21 01:22:40;;;;;;;;;;;2.20;84.60;;;;;;5009417;28;19913;-81
2022/01/21 01:27:50;;;;;;;;;;;2.40;84.70;;;;;;5028103;28;19937;-81
2022/01/21 01:30:17;;;;;;;;;;;2.40;84.20;;;;;;5010799;28;20306;-81
2022/01/21 01:32:44;;;;;;;;;;;2.50;84.60;;;;;;5024980;28;19924;-81
2022/01/21 01:35:11;;;;;;;;;;;2.40;84.50;;;;;;5005847;28;19979;-80
2022/01/21 01:40:43;;;;;;;;;;;2.40;84.70;;;;;;4997673;28;20032;-80
2022/01/21 01:51:22;;;;;;;;;;;2.50;84.00;;;;;;5025764;28;19920;-80
2022/01/21 01:53:51;;;;;;;;;;;2.50;83.90;;;;;;4997811;28;19926;-80
2022/01/21 01:56:18;;;;;;;;;;;2.50;84.10;;;;;;4996799;28;19916;-80
2022/01/21 01:58:44;;;;;;;;;;;2.60;83.40;;;;;;4998999;28;20290;-80
2022/01/21 02:01:10;;;;;;;;;;;2.60;83.60;;;;;;5002420;28;19917;-80
2022/01/21 02:03:36;;;;;;;;;;;2.60;83.30;;;;;;5015374;28;19922;-80
2022/01/21 02:06:02;;;;;;;;;;;2.70;83.30;;;;;;5012711;28;19917;-81
2022/01/21 02:08:28;;;;;;;;;;;2.50;83.30;;;;;;4997324;28;20339;-81
2022/01/21 02:10:54;;;;;;;;;;;2.50;83.70;;;;;;5019996;28;20294;-81
2022/01/21 02:13:26;;;;;;;;;;;2.60;84.10;;;;;;4992510;28;19918;-80
2022/01/21 02:15:56;;;;;;;;;;;2.60;84.00;;;;;;5007901;28;19917;-82
2022/01/21 02:21:35;;;;;;;;;;;2.50;83.80;;;;;;5016256;28;19972;-81
2022/01/21 02:24:04;;;;;;;;;;;2.50;84.20;;;;;;5006985;28;19913;-81
2022/01/21 02:26:29;;;;;;;;;;;2.60;84.00;;;;;;5024549;28;19933;-81
2022/01/21 02:28:58;;;;;;;;;;;2.70;83.80;;;;;;5024981;28;19933;-81
2022/01/21 02:31:23;;;;;;;;;;;2.60;83.90;;;;;;5042024;28;19913;-82
2022/01/21 02:33:49;;;;;;;;;;;2.60;84.20;;;;;;5012458;28;19941;-81
2022/01/21 02:36:14;;;;;;;;;;;2.70;84.00;;;;;;5019625;28;19913;-81
2022/01/21 02:38:40;;;;;;;;;;;2.70;84.00;;;;;;4998301;28;19913;-80
2022/01/21 02:41:05;;;;;;;;;;;2.70;84.00;;;;;;5001350;28;19917;-80
2022/01/21 02:43:31;;;;;;;;;;;2.70;83.80;;;;;;5005939;28;19917;-82
2022/01/21 02:45:56;;;;;;;;;;;2.80;83.60;;;;;;5010774;28;20341;-80
2022/01/21 02:48:23;;;;;;;;;;;2.70;83.90;;;;;;5002914;28;19913;-81
2022/01/21 02:50:48;;;;;;;;;;;2.70;84.40;;;;;;5026645;28;19913;-81
2022/01/21 02:55:48;;;;;;;;;;;2.60;84.00;;;;;;5022398;28;19914;-81
2022/01/21 02:58:14;;;;;;;;;;;2.50;84.30;;;;;;5001408;28;20004;-81
2022/01/21 03:00:39;;;;;;;;;;;2.50;84.50;;;;;;5024414;28;19945;-81
2022/01/21 03:03:05;;;;;;;;;;;2.50;84.30;;;;;;5017554;28;19999;-80
2022/01/21 03:05:34;;;;;;;;;;;2.60;84.40;;;;;;5022361;28;19949;-81
2022/01/21 03:07:59;;;;;;;;;;;2.60;84.00;;;;;;5000146;28;19937;-81
2022/01/21 03:10:26;;;;;;;;;;;2.60;84.20;;;;;;5018355;28;19917;-80
2022/01/21 03:12:52;;;;;;;;;;;2.80;84.50;;;;;;5003635;28;20326;-81
2022/01/21 03:15:17;;;;;;;;;;;2.80;84.20;;;;;;5002258;28;20505;-80
2022/01/21 03:17:43;;;;;;;;;;;2.80;84.10;;;;;;5029906;28;19909;-80
2022/01/21 03:20:09;;;;;;;;;;;2.80;84.30;;;;;;5020851;28;19956;-81
2022/01/21 03:22:36;;;;;;;;;;;2.80;84.30;;;;;;5004627;28;19916;-82
2022/01/21 03:25:01;;;;;;;;;;;2.80;84.20;;;;;;5032568;28;19921;-81
2022/01/21 03:27:27;;;;;;;;;;;2.90;84.10;;;;;;5011414;28;19968;-80
2022/01/21 03:29:52;;;;;;;;;;;2.80;84.40;;;;;;5011379;28;20440;-81
2022/01/21 03:32:18;;;;;;;;;;;3.00;84.30;;;;;;5012148;28;19977;-81
2022/01/21 03:34:43;;;;;;;;;;;2.90;84.00;;;;;;5011354;28;20389;-81
2022/01/21 03:37:09;;;;;;;;;;;2.90;84.10;;;;;;5010725;28;19980;-81
2022/01/21 03:39:34;;;;;;;;;;;2.90;83.70;;;;;;5032914;28;19972;-81
2022/01/21 03:42:00;;;;;;;;;;;3.00;83.70;;;;;;5025004;28;19916;-81
2022/01/21 03:44:25;;;;;;;;;;;2.90;84.00;;;;;;5025233;28;19917;-81
2022/01/21 03:46:51;;;;;;;;;;;2.90;84.30;;;;;;5009439;28;19940;-81
2022/01/21 03:49:16;;;;;;;;;;;3.00;84.20;;;;;;5002286;28;19967;-81
2022/01/21 03:51:42;;;;;;;;;;;2.90;84.30;;;;;;4997787;28;20390;-80
2022/01/21 03:54:07;;;;;;;;;;;2.90;84.10;;;;;;5003123;28;19914;-81
2022/01/21 03:56:35;;;;;;;;;;;2.80;84.10;;;;;;4999781;28;20071;-81
2022/01/21 03:59:00;;;;;;;;;;;2.80;84.20;;;;;;5023599;28;19913;-81
2022/01/21 04:01:28;;;;;;;;;;;2.70;84.20;;;;;;5010046;28;19924;-81
2022/01/21 04:03:53;;;;;;;;;;;2.60;84.30;;;;;;5006368;28;20339;-81
2022/01/21 04:06:19;;;;;;;;;;;2.50;84.60;;;;;;5006631;28;19970;-81
2022/01/21 04:08:44;;;;;;;;;;;2.50;84.70;;;;;;5022469;28;19914;-81
2022/01/21 04:11:10;;;;;;;;;;;2.50;85.10;;;;;;5020678;28;20024;-81
2022/01/21 04:13:35;;;;;;;;;;;2.40;85.10;;;;;;5023766;28;20242;-82
2022/01/21 04:16:03;;;;;;;;;;;2.40;85.30;;;;;;5017356;28;19935;-81
2022/01/21 04:18:30;;;;;;;;;;;2.40;85.60;;;;;;5006621;28;20274;-80
2022/01/21 04:20:56;;;;;;;;;;;2.40;85.70;;;;;;5005393;28;19921;-82
2022/01/21 04:23:21;;;;;;;;;;;2.40;85.90;;;;;;5007173;28;19913;-81
2022/01/21 04:25:47;;;;;;;;;;;2.40;86.00;;;;;;5005607;28;19949;-81
2022/01/21 04:28:13;;;;;;;;;;;2.30;85.90;;;;;;5007464;28;20266;-82
2022/01/21 04:30:39;;;;;;;;;;;2.30;85.80;;;;;;5013115;28;20304;-81
2022/01/21 04:33:04;;;;;;;;;;;2.30;85.90;;;;;;5006468;28;19949;-81
2022/01/21 04:35:30;;;;;;;;;;;2.20;85.90;;;;;;5012865;28;19945;-81
2022/01/21 04:38:00;;;;;;;;;;;2.30;86.30;;;;;;5033963;28;20198;-81
2022/01/21 04:40:30;;;;;;;;;;;2.30;86.30;;;;;;5014929;28;19921;-82
2022/01/21 04:48:24;;;;;;;;;;;2.30;86.10;;;;;;5030690;28;19955;-82
2022/01/21 04:51:27;;;;;;;;;;;2.40;86.20;;;;;;5006978;28;20406;-81
2022/01/21 04:53:43;;;;;;;;;;;2.50;86.10;;;;;;5025464;28;19917;-79
2022/01/21 04:56:09;;;;;;;;;;;2.40;86.10;;;;;;5045981;28;19901;-82
2022/01/21 04:58:34;;;;;;;;;;;2.50;86.20;;;;;;5014846;28;19956;-81
2022/01/21 05:01:04;;;;;;;;;;;2.50;86.00;;;;;;5021307;28;19917;-80
2022/01/21 05:03:30;;;;;;;;;;;2.50;86.00;;;;;;5025881;28;20000;-82
2022/01/21 05:05:55;;;;;;;;;;;2.50;86.00;;;;;;5026155;28;19924;-82
2022/01/21 05:08:27;;;;;;;;;;;2.60;86.10;;;;;;5031298;28;20491;-82
2022/01/21 05:10:52;;;;;;;;;;;2.60;86.00;;;;;;5028751;28;19924;-82
2022/01/21 05:13:22;;;;;;;;;;;2.60;85.60;;;;;;5033303;28;19921;-81
2022/01/21 05:18:23;;;;;;;;;;;2.60;85.90;;;;;;5035338;28;20580;-83
2022/01/21 05:20:48;;;;;;;;;;;2.60;85.80;;;;;;5015232;28;19928;-82
2022/01/21 05:23:14;;;;;;;;;;;2.50;86.20;;;;;;5015922;28;20396;-82
2022/01/21 05:25:39;;;;;;;;;;;2.50;86.10;;;;;;5031010;28;20007;-82
2022/01/21 05:28:05;;;;;;;;;;;2.50;86.30;;;;;;5033356;28;19921;-82
2022/01/21 05:30:30;;;;;;;;;;;2.60;86.30;;;;;;5015623;28;20480;-81
2022/01/21 05:32:56;;;;;;;;;;;2.60;86.50;;;;;;5033587;28;19992;-83
2022/01/21 05:35:22;;;;;;;;;;;2.60;86.20;;;;;;5015679;28;19936;-82
2022/01/21 05:37:47;;;;;;;;;;;2.60;86.30;;;;;;5033309;28;19940;-82
2022/01/21 05:40:14;;;;;;;;;;;2.60;86.20;;;;;;5015414;28;19929;-81
2022/01/21 05:42:40;;;;;;;;;;;2.60;86.20;;;;;;5018565;28;20655;-82
2022/01/21 05:47:34;;;;;;;;;;;2.60;86.10;;;;;;5038328;28;19995;-82
2022/01/21 05:50:00;;;;;;;;;;;2.60;86.20;;;;;;5031933;28;19929;-82
2022/01/21 05:52:37;;;;;;;;;;;2.60;86.20;;;;;;5009478;28;19913;-82
2022/01/21 05:55:03;;;;;;;;;;;2.60;86.30;;;;;;5014635;28;19902;-82
2022/01/21 05:57:30;;;;;;;;;;;2.60;86.30;;;;;;5029944;28;19984;-81
2022/01/21 05:59:56;;;;;;;;;;;2.50;86.40;;;;;;5019702;28;19913;-83
2022/01/21 06:02:21;;;;;;;;;;;2.60;86.50;;;;;;5035133;28;19913;-80
2022/01/21 06:04:50;;;;;;;;;;;2.60;86.60;;;;;;5039260;28;19919;-81
2022/01/21 06:07:15;;;;;;;;;;;2.60;86.90;;;;;;5003753;28;19932;-79
2022/01/21 06:09:43;;;;;;;;;;;2.60;86.50;;;;;;5021709;28;19917;-81
2022/01/21 06:12:09;;;;;;;;;;;2.60;86.70;;;;;;5001876;28;19921;-79
2022/01/21 06:14:36;;;;;;;;;;;2.60;86.90;;;;;;4999212;28;19914;-79
2022/01/21 06:17:01;;;;;;;;;;;2.50;87.00;;;;;;4999372;28;19917;-81
2022/01/21 06:19:27;;;;;;;;;;;2.50;86.90;;;;;;5010340;28;19921;-82
2022/01/21 06:21:52;;;;;;;;;;;2.50;87.20;;;;;;4996884;28;20378;-83
2022/01/21 06:24:18;;;;;;;;;;;2.50;87.00;;;;;;5001351;28;19920;-83
2022/01/21 06:26:44;;;;;;;;;;;2.40;87.00;;;;;;5012199;28;20329;-83
2022/01/21 06:29:10;;;;;;;;;;;2.50;87.20;;;;;;5011666;28;19921;-84
2022/01/21 06:31:36;;;;;;;;;;;2.50;87.10;;;;;;4995200;28;19924;-83
2022/01/21 06:34:01;;;;;;;;;;;2.50;86.90;;;;;;5004334;28;19917;-85
2022/01/21 06:36:28;;;;;;;;;;;2.60;86.80;;;;;;5001743;28;19913;-82
2022/01/21 06:38:53;;;;;;;;;;;2.40;86.90;;;;;;4997497;28;19996;-80
2022/01/21 06:41:19;;;;;;;;;;;2.50;87.00;;;;;;4997555;28;19959;-81
2022/01/21 06:43:44;;;;;;;;;;;2.40;86.90;;;;;;4999261;28;19914;-81
2022/01/21 06:46:10;;;;;;;;;;;2.50;87.20;;;;;;4999575;28;19913;-84
2022/01/21 06:48:36;;;;;;;;;;;2.50;87.40;;;;;;5014876;28;19917;-80
2022/01/21 06:51:02;;;;;;;;;;;2.60;87.10;;;;;;5001204;28;19952;-80
2022/01/21 06:53:28;;;;;;;;;;;2.60;86.70;;;;;;5001356;28;19909;-80
2022/01/21 06:55:54;;;;;;;;;;;2.50;86.80;;;;;;5002325;28;19913;-81
2022/01/21 06:58:19;;;;;;;;;;;2.50;87.00;;;;;;4995642;28;19917;-79
2022/01/21 07:00:45;;;;;;;;;;;2.50;86.90;;;;;;5014720;28;19944;-80
2022/01/21 07:03:11;;;;;;;;;;;2.40;87.10;;;;;;5005527;28;19925;-80
2022/01/21 07:05:36;;;;;;;;;;;2.50;87.30;;;;;;5004332;28;19960;-80
2022/01/21 07:08:02;;;;;;;;;;;2.40;87.30;;;;;;4998863;28;19944;-81
2022/01/21 07:10:29;;;;;;;;;;;2.40;87.30;;;;;;5003169;28;19918;-80
2022/01/21 07:12:55;;;;;;;;;;;2.40;87.40;;;;;;5024602;28;20667;-80
2022/01/21 07:15:21;;;;;;;;;;;2.30;87.40;;;;;;5002215;28;19931;-79
2022/01/21 07:17:48;;;;;;;;;;;2.40;87.60;;;;;;5002986;28;20290;-80
2022/01/21 07:20:15;;;;;;;;;;;2.50;87.30;;;;;;4999625;28;19926;-80
2022/01/21 07:22:40;;;;;;;;;;;2.40;87.60;;;;;;5004303;28;20583;-83
2022/01/21 07:25:06;;;;;;;;;;;2.40;87.50;;;;;;5007931;28;19917;-82
2022/01/21 07:27:32;;;;;;;;;;;2.40;87.80;;;;;;5005679;28;19933;-83
2022/01/21 07:29:58;;;;;;;;;;;2.50;87.50;;;;;;5021702;28;19917;-82
2022/01/21 07:32:23;;;;;;;;;;;2.40;87.30;;;;;;5011747;28;19976;-83
2022/01/21 07:34:49;;;;;;;;;;;2.50;87.50;;;;;;5029399;28;19918;-82
2022/01/21 07:37:14;;;;;;;;;;;2.50;87.50;;;;;;5008237;28;19918;-83
2022/01/21 07:39:40;;;;;;;;;;;2.50;87.50;;;;;;4999761;28;19921;-83
2022/01/21 07:42:06;;;;;;;;;;;2.50;87.40;;;;;;5015596;28;19929;-82
2022/01/21 07:44:31;;;;;;;;;;;2.40;87.50;;;;;;5013695;28;19913;-83
2022/01/21 07:46:57;;;;;;;;;;;2.40;87.60;;;;;;5010756;28;19925;-82
2022/01/21 07:49:23;;;;;;;;;;;2.30;87.20;;;;;;5009088;28;19991;-82
2022/01/21 07:51:48;;;;;;;;;;;2.50;87.50;;;;;;5004596;28;19919;-82
2022/01/21 07:54:14;;;;;;;;;;;2.50;87.20;;;;;;5010785;28;19934;-81
2022/01/21 07:56:39;;;;;;;;;;;2.50;87.30;;;;;;5011404;28;20101;-81
2022/01/21 07:59:06;;;;;;;;;;;2.50;87.30;;;;;;5011679;28;19913;-81
2022/01/21 08:01:32;;;;;;;;;;;2.60;87.10;;;;;;5013148;28;19914;-81
2022/01/21 08:03:57;;;;;;;;;;;2.60;86.70;;;;;;5011602;28;19921;-81
2022/01/21 08:06:23;;;;;;;;;;;2.60;87.20;;;;;;5011543;28;19913;-83
2022/01/21 08:08:48;;;;;;;;;;;2.60;87.20;;;;;;5018401;28;19985;-82
2022/01/21 08:11:14;;;;;;;;;;;2.70;87.20;;;;;;4996372;28;19967;-81
2022/01/21 08:13:40;;;;;;;;;;;2.70;86.80;;;;;;5009099;28;19921;-81
2022/01/21 08:16:05;;;;;;;;;;;2.70;87.00;;;;;;5005751;28;19977;-84
2022/01/21 08:18:31;;;;;;;;;;;2.70;87.00;;;;;;5011828;28;19909;-83
2022/01/21 08:20:57;;;;;;;;;;;2.80;87.20;;;;;;5008015;28;20341;-84
2022/01/21 08:23:22;;;;;;;;;;;2.80;87.10;;;;;;5029232;28;19914;-83
2022/01/21 08:25:48;;;;;;;;;;;2.90;86.90;;;;;;5011650;28;19949;-83
2022/01/21 08:28:13;;;;;;;;;;;2.90;86.60;;;;;;5009506;28;19913;-83
2022/01/21 08:30:39;;;;;;;;;;;2.80;86.60;;;;;;5028771;28;19913;-84
2022/01/21 08:33:05;;;;;;;;;;;2.90;86.30;;;;;;5014057;28;19929;-83
2022/01/21 08:35:30;;;;;;;;;;;2.90;86.30;;;;;;5011729;28;19940;-83
2022/01/21 08:37:56;;;;;;;;;;;2.80;86.50;;;;;;5000388;28;20485;-83
2022/01/21 08:40:23;;;;;;;;;;;2.80;86.80;;;;;;5011602;28;19924;-81
2022/01/21 08:42:48;;;;;;;;;;;2.80;86.60;;;;;;4999484;28;19921;-82
2022/01/21 08:45:14;;;;;;;;;;;2.80;86.70;;;;;;5015612;28;19925;-81
2022/01/21 08:47:41;;;;;;;;;;;2.80;86.80;;;;;;5016246;28;19933;-83
2022/01/21 08:50:09;;;;;;;;;;;2.80;86.90;;;;;;4998052;28;20859;-82
2022/01/21 08:52:38;;;;;;;;;;;3.00;87.10;;;;;;5016744;28;20401;-80
2022/01/21 08:55:05;;;;;;;;;;;3.00;86.40;;;;;;4998798;28;20509;-81
2022/01/21 08:57:32;;;;;;;;;;;3.00;86.40;;;;;;4999054;28;19964;-82
2022/01/21 08:59:58;;;;;;;;;;;3.00;86.20;;;;;;4998888;28;19909;-82
2022/01/21 09:02:24;;;;;;;;;;;3.10;86.00;;;;;;5026432;28;19913;-83
2022/01/21 09:04:49;;;;;;;;;;;3.00;86.40;;;;;;5008823;28;20413;-82
2022/01/21 09:07:15;;;;;;;;;;;3.10;86.20;;;;;;5008284;28;19980;-82
2022/01/21 09:09:40;;;;;;;;;;;3.00;86.30;;;;;;5007210;28;19929;-82
2022/01/21 09:12:06;;;;;;;;;;;2.90;86.50;;;;;;5003493;28;19925;-82
2022/01/21 09:14:34;;;;;;;;;;;3.00;86.60;;;;;;5001926;28;20262;-84
2022/01/21 09:17:00;;;;;;;;;;;3.00;86.40;;;;;;5009378;28;20111;-82
2022/01/21 09:19:26;;;;;;;;;;;3.00;86.10;;;;;;4998207;28;19913;-82
2022/01/21 09:21:52;;;;;;;;;;;3.00;85.90;;;;;;4998962;28;19936;-81
2022/01/21 09:24:19;;;;;;;;;;;3.10;86.20;;;;;;5017414;28;20289;-82
2022/01/21 09:26:44;;;;;;;;;;;3.10;86.00;;;;;;5000178;28;20409;-82
2022/01/21 09:29:10;;;;;;;;;;;3.20;85.70;;;;;;5017377;28;19917;-82
2022/01/21 09:31:36;;;;;;;;;;;3.30;86.00;;;;;;4995785;28;19979;-82
2022/01/21 09:34:03;;;;;;;;;;;3.30;85.90;;;;;;4997885;28;19917;-82
2022/01/21 09:36:29;;;;;;;;;;;3.30;85.80;;;;;;5016003;28;19910;-82
2022/01/21 09:38:54;;;;;;;;;;;3.30;85.60;;;;;;4996771;28;19978;-82
2022/01/21 09:41:21;;;;;;;;;;;3.30;85.80;;;;;;4998935;28;19962;-81
2022/01/21 09:43:48;;;;;;;;;;;3.60;85.70;;;;;;4999329;28;19964;-81
2022/01/21 09:46:14;;;;;;;;;;;3.60;85.60;;;;;;4996207;28;19919;-81
2022/01/21 09:49:07;;;;;;;;;;;3.70;85.30;;;;;;4997131;28;20382;-82
2022/01/21 09:51:34;;;;;;;;;;;3.60;85.20;;;;;;5001808;28;19920;-82
2022/01/21 09:54:00;;;;;;;;;;;3.60;85.10;;;;;;5013757;28;20008;-82
2022/01/21 09:56:26;;;;;;;;;;;3.50;85.10;;;;;;4997114;28;19933;-83
2022/01/21 09:59:01;;;;;;;;;;;3.40;85.30;;;;;;5018173;28;19917;-84
2022/01/21 10:01:26;;;;;;;;;;;3.40;85.60;;;;;;5020813;28;19944;-83
2022/01/21 10:03:53;;;;;;;;;;;3.30;85.80;;;;;;5021604;28;19976;-85
2022/01/21 10:06:21;;;;;;;;;;;3.20;85.90;;;;;;5011227;28;19967;-83
2022/01/21 10:08:47;;;;;;;;;;;3.10;85.90;;;;;;5011713;28;19917;-83
2022/01/21 10:11:14;;;;;;;;;;;3.10;86.00;;;;;;5023201;28;20184;-83
2022/01/21 10:13:42;;;;;;;;;;;3.20;86.10;;;;;;5000677;28;20004;-83
2022/01/21 10:16:09;;;;;;;;;;;3.30;86.00;;;;;;5017347;28;19925;-82
2022/01/21 10:18:34;;;;;;;;;;;3.40;85.90;;;;;;5019397;22;19941;-84
2022/01/21 10:21:02;;;;;;;;;;;3.40;85.90;;;;;;5004659;28;19913;-83
2022/01/21 10:23:29;;;;;;;;;;;3.60;85.70;;;;;;5012958;28;19948;-84
2022/01/21 10:26:00;;;;;;;;;;;3.60;85.50;;;;;;4999464;28;19980;-81
2022/01/21 10:28:26;;;;;;;;;;;3.60;85.20;;;;;;5013325;28;19920;-80
2022/01/21 10:31:04;;;;;;;;;;;3.60;85.20;;;;;;5030210;28;19921;-81
2022/01/21 10:33:29;;;;;;;;;;;3.80;85.10;;;;;;5024548;28;19924;-82
2022/01/21 10:36:08;;;;;;;;;;;3.90;84.80;;;;;;5014030;28;19980;-81
2022/01/21 10:38:38;;;;;;;;;;;3.90;84.70;;;;;;5014054;28;19913;-82
2022/01/21 10:41:27;;;;;;;;;;;4.00;84.40;;;;;;5015907;28;19909;-81
2022/01/21 10:44:09;;;;;;;;;;;4.10;84.80;;;;;;5001886;28;19920;-81
2022/01/21 10:46:35;;;;;;;;;;;4.20;84.40;;;;;;5012078;28;19961;-83
2022/01/21 10:49:04;;;;;;;;;;;4.30;84.00;;;;;;5008915;28;19913;-82
2022/01/21 10:51:31;;;;;;;;;;;4.30;83.80;;;;;;5021872;28;19956;-82
2022/01/21 10:53:57;;;;;;;;;;;4.50;83.30;;;;;;5010332;28;19921;-80
2022/01/21 10:56:23;;;;;;;;;;;4.50;83.10;;;;;;5014550;28;20009;-80
2022/01/21 10:58:53;;;;;;;;;;;4.50;83.30;;;;;;5028175;28;19939;-80
2022/01/21 11:01:27;;;;;;;;;;;4.50;83.20;;;;;;5009232;28;20362;-81
2022/01/21 11:03:57;;;;;;;;;;;4.50;83.00;;;;;;5015434;28;19924;-80
2022/01/21 11:06:25;;;;;;;;;;;4.50;83.10;;;;;;5010446;28;20001;-80
2022/01/21 11:08:51;;;;;;;;;;;4.40;83.30;;;;;;5003619;28;19921;-80
2022/01/21 11:11:21;;;;;;;;;;;4.40;83.70;;;;;;5006479;28;20306;-81
2022/01/21 11:13:47;;;;;;;;;;;4.30;83.60;;;;;;5005327;28;19928;-79
2022/01/21 11:16:13;;;;;;;;;;;4.60;83.80;;;;;;5024316;28;19917;-79
2022/01/21 11:18:52;;;;;;;;;;;4.60;83.20;;;;;;5022987;28;19917;-79
2022/01/21 11:21:18;;;;;;;;;;;4.60;83.20;;;;;;5029981;28;19913;-79
2022/01/21 11:23:43;;;;;;;;;;;4.70;83.20;;;;;;5017754;28;20421;-79
2022/01/21 11:26:09;;;;;;;;;;;4.80;83.20;;;;;;5016511;28;20023;-80
2022/01/21 11:28:34;;;;;;;;;;;4.80;82.70;;;;;;5017412;28;19988;-79
2022/01/21 11:31:00;;;;;;;;;;;4.70;82.50;;;;;;5013901;28;20375;-80
2022/01/21 11:33:25;;;;;;;;;;;4.70;82.90;;;;;;5014966;28;19920;-80
2022/01/21 11:35:51;;;;;;;;;;;4.90;82.80;;;;;;5020745;28;19924;-79
2022/01/21 11:38:18;;;;;;;;;;;5.00;82.80;;;;;;5002226;28;20000;-80
2022/01/21 11:40:44;;;;;;;;;;;5.10;82.10;;;;;;5013107;28;20320;-80
2022/01/21 11:43:10;;;;;;;;;;;5.30;81.70;;;;;;5003705;28;20416;-80
2022/01/21 11:46:05;;;;;;;;;;;5.20;81.30;;;;;;5001952;28;19941;-80
2022/01/21 11:50:51;;;;;;;;;;;5.30;81.70;;;;;;5032712;28;19913;-80
2022/01/21 11:53:52;;;;;;;;;;;5.30;81.60;;;;;;5008593;28;19964;-80
2022/01/21 11:56:30;;;;;;;;;;;5.30;81.80;;;;;;4934442;29;20435;-80
2022/01/21 11:59:33;;;;;;;;;;;5.40;81.40;;;;;;5004463;28;19924;-79
2022/01/21 12:01:59;;;;;;;;;;;5.60;81.50;;;;;;5016847;28;19931;-79
2022/01/21 12:04:31;;;;;;;;;;;5.70;80.80;;;;;;5015225;28;19917;-80
2022/01/21 12:07:00;;;;;;;;;;;5.60;80.90;;;;;;5033901;28;20336;-80
2022/01/21 12:10:01;;;;;;;;;;;5.60;80.70;;;;;;5034399;28;20253;-80
2022/01/21 12:13:07;;;;;;;;;;;5.60;80.80;;;;;;4946762;29;19989;-80
2022/01/21 12:15:38;;;;;;;;;;;5.80;80.60;;;;;;5031273;28;19956;-80
2022/01/21 12:18:18;;;;;;;;;;;5.60;80.90;;;;;;5007558;28;19921;-80
2022/01/21 12:20:44;;;;;;;;;;;5.50;81.50;;;;;;5025267;28;19913;-78
2022/01/21 12:23:12;;;;;;;;;;;5.60;81.40;;;;;;5010486;28;19992;-78
2022/01/21 12:25:57;;;;;;;;;;;5.50;81.40;;;;;;5004600;28;19953;-78
2022/01/21 12:28:23;;;;;;;;;;;5.50;81.60;;;;;;5027336;28;20369;-78
2022/01/21 12:30:52;;;;;;;;;;;5.50;81.80;;;;;;5008332;28;19936;-79
2022/01/21 12:33:17;;;;;;;;;;;5.60;81.30;;;;;;5012893;28;20505;-77
2022/01/21 12:35:45;;;;;;;;;;;5.50;81.60;;;;;;5007186;28;19968;-78
2022/01/21 12:40:58;;;;;;;;;;;5.60;81.70;;;;;;5026698;28;20344;-82
2022/01/21 12:43:36;;;;;;;;;;;5.60;81.70;;;;;;5020893;28;19988;-81
2022/01/21 12:46:03;;;;;;;;;;;5.70;81.40;;;;;;5014741;28;19917;-83
2022/01/21 12:48:32;;;;;;;;;;;5.80;81.40;;;;;;5010853;28;19913;-82
2022/01/21 12:51:00;;;;;;;;;;;5.80;81.70;;;;;;5013373;28;20007;-83
2022/01/21 12:53:33;;;;;;;;;;;5.80;81.70;;;;;;5019936;28;19913;-84
2022/01/21 12:56:05;;;;;;;;;;;5.80;81.40;;;;;;5015784;28;19917;-83
2022/01/21 12:58:32;;;;;;;;;;;5.70;81.70;;;;;;5018145;28;19935;-83
2022/01/21 13:00:58;;;;;;;;;;;5.70;81.80;;;;;;5009628;28;20653;-80
2022/01/21 13:03:29;;;;;;;;;;;5.80;82.00;;;;;;5007736;28;19967;-80
2022/01/21 13:06:01;;;;;;;;;;;5.80;81.80;;;;;;5004865;28;20082;-84
2022/01/21 13:08:38;;;;;;;;;;;5.80;81.60;;;;;;5005539;28;19924;-82
2022/01/21 13:11:16;;;;;;;;;;;5.70;82.10;;;;;;5024209;28;19999;-81
2022/01/21 13:13:52;;;;;;;;;;;5.60;82.40;;;;;;5012848;28;19917;-83
2022/01/21 13:16:25;;;;;;;;;;;5.60;83.20;;;;;;4998858;28;19914;-81
2022/01/21 13:18:57;;;;;;;;;;;5.60;82.80;;;;;;5025339;28;20028;-83
2022/01/21 13:21:22;;;;;;;;;;;5.60;83.60;;;;;;5027157;28;19960;-82
2022/01/21 13:23:59;;;;;;;;;;;5.60;84.20;;;;;;5025127;28;19917;-83
2022/01/21 13:26:26;;;;;;;;;;;5.60;84.60;;;;;;5025353;28;19920;-83
2022/01/21 13:28:53;;;;;;;;;;;5.60;84.50;;;;;;5011946;28;20297;-83
2022/01/21 13:31:18;;;;;;;;;;;5.70;84.80;;;;;;5027335;28;20211;-82
2022/01/21 13:33:44;;;;;;;;;;;5.60;84.50;;;;;;5007054;28;19970;-83
2022/01/21 13:36:10;;;;;;;;;;;5.60;84.70;;;;;;5010555;28;19924;-82
2022/01/21 13:38:37;;;;;;;;;;;5.60;84.10;;;;;;5007738;28;19918;-82
2022/01/21 13:41:07;;;;;;;;;;;5.60;84.40;;;;;;5011863;28;20385;-82
2022/01/21 13:43:32;;;;;;;;;;;5.60;84.10;;;;;;5005573;28;20010;-83
2022/01/21 13:45:59;;;;;;;;;;;5.80;84.10;;;;;;5028338;28;19913;-82
2022/01/21 13:48:25;;;;;;;;;;;5.80;84.30;;;;;;5010412;28;19914;-83
2022/01/21 13:50:52;;;;;;;;;;;5.80;84.50;;;;;;5000076;28;20364;-83
2022/01/21 13:53:17;;;;;;;;;;;5.90;84.20;;;;;;5014753;28;19924;-83
2022/01/21 13:55:47;;;;;;;;;;;5.90;84.00;;;;;;5010495;28;19918;-83
2022/01/21 13:58:12;;;;;;;;;;;5.90;84.00;;;;;;5008993;28;19921;-83
2022/01/21 14:00:42;;;;;;;;;;;5.80;83.80;;;;;;5022027;28;20281;-83
2022/01/21 14:03:10;;;;;;;;;;;5.90;84.00;;;;;;5020808;28;19916;-84
2022/01/21 14:05:42;;;;;;;;;;;5.80;84.20;;;;;;5005769;28;19944;-82
2022/01/21 14:08:12;;;;;;;;;;;5.90;84.00;;;;;;5004465;28;19928;-82
2022/01/21 14:10:37;;;;;;;;;;;5.80;84.20;;;;;;5028709;28;19924;-83
2022/01/21 14:13:04;;;;;;;;;;;5.80;84.40;;;;;;5003740;28;19918;-83
2022/01/21 14:15:30;;;;;;;;;;;5.80;85.10;;;;;;5008760;28;19946;-81
2022/01/21 14:17:55;;;;;;;;;;;5.80;85.30;;;;;;5022427;28;19995;-84
2022/01/21 14:20:21;;;;;;;;;;;5.80;85.50;;;;;;5022116;28;20274;-85
2022/01/21 14:22:47;;;;;;;;;;;5.60;85.50;;;;;;5021943;28;19913;-83
2022/01/21 14:25:13;;;;;;;;;;;5.60;85.70;;;;;;5007200;28;20938;-82
2022/01/21 14:27:45;;;;;;;;;;;5.60;86.00;;;;;;5002909;28;20238;-80
2022/01/21 14:30:12;;;;;;;;;;;5.60;86.40;;;;;;5017131;28;20288;-80
2022/01/21 14:32:40;;;;;;;;;;;5.50;86.80;;;;;;5026716;28;19917;-81
2022/01/21 14:35:09;;;;;;;;;;;5.50;87.40;;;;;;5009901;28;19928;-81
2022/01/21 14:37:44;;;;;;;;;;;5.50;87.40;;;;;;5031438;28;19939;-82
2022/01/21 14:40:10;;;;;;;;;;;5.50;87.30;;;;;;5025427;28;19921;-82
2022/01/21 14:42:36;;;;;;;;;;;5.50;87.40;;;;;;5019580;28;19988;-82
2022/01/21 14:45:10;;;;;;;;;;;5.50;87.30;;;;;;5010113;28;19963;-81
2022/01/21 14:47:36;;;;;;;;;;;5.50;87.70;;;;;;5024781;28;19984;-81
2022/01/21 14:50:07;;;;;;;;;;;5.50;87.70;;;;;;5019705;28;19981;-81
2022/01/21 14:52:46;;;;;;;;;;;5.50;88.30;;;;;;5006776;28;20008;-81
2022/01/21 14:55:15;;;;;;;;;;;5.50;88.50;;;;;;5007997;28;19993;-82
2022/01/21 14:57:45;;;;;;;;;;;5.50;88.60;;;;;;5035954;28;19932;-82
2022/01/21 15:00:10;;;;;;;;;;;5.60;88.60;;;;;;5006911;28;19936;-82
2022/01/21 15:02:37;;;;;;;;;;;5.60;88.80;;;;;;5009573;28;19917;-81
2022/01/21 15:05:10;;;;;;;;;;;5.50;88.80;;;;;;5014618;28;19940;-81
2022/01/21 15:07:36;;;;;;;;;;;5.60;89.20;;;;;;5029517;28;19913;-81
2022/01/21 15:10:16;;;;;;;;;;;5.60;89.00;;;;;;5031919;28;19944;-81
2022/01/21 15:15:44;;;;;;;;;;;5.50;89.40;;;;;;5035345;28;19963;-82
2022/01/21 15:18:12;;;;;;;;;;;5.50;89.50;;;;;;5009336;28;19917;-82
2022/01/21 15:20:38;;;;;;;;;;;5.50;89.60;;;;;;5030806;28;21127;-82
2022/01/21 15:23:04;;;;;;;;;;;5.50;89.40;;;;;;5009515;28;19931;-83
2022/01/21 15:25:33;;;;;;;;;;;5.50;89.60;;;;;;5014748;28;19917;-83
2022/01/21 15:27:59;;;;;;;;;;;5.50;89.50;;;;;;5007736;28;19967;-82
2022/01/21 15:30:26;;;;;;;;;;;5.50;89.50;;;;;;5028205;28;19964;-83